sensor_id;sensor_type;location;lat;lon;timestamp;P1;durP1;ratioP1;P2;durP2;ratioP2
35444;SDS011;21562;49.476;6.086;2023-05-10T00:01:57;7.20;;;4.38;;
35444;SDS011;21562;49.476;6.086;2023-05-10T00:04:23;8.77;;;4.55;;
35444;SDS011;21562;49.476;6.086;2023-05-10T00:06:52;8.60;;;4.50;;
35444;SDS011;21562;49.476;6.086;2023-05-10T00:09:18;6.75;;;4.13;;
35444;SDS011;21562;49.476;6.086;2023-05-10T00:11:43;8.75;;;4.15;;
35444;SDS011;21562;49.476;6.086;2023-05-10T00:14:09;18.65;;;5.15;;
35444;SDS011;21562;49.476;6.086;2023-05-10T00:16:35;7.15;;;4.82;;
35444;SDS011;21562;49.476;6.086;2023-05-10T00:19:00;6.80;;;4.35;;
35444;SDS011;21562;49.476;6.086;2023-05-10T00:21:26;7.13;;;4.65;;
35444;SDS011;21562;49.476;6.086;2023-05-10T00:23:53;10.98;;;5.15;;
35444;SDS011;21562;49.476;6.086;2023-05-10T00:26:19;6.07;;;4.60;;
35444;SDS011;21562;49.476;6.086;2023-05-10T00:28:44;7.43;;;5.03;;
35444;SDS011;21562;49.476;6.086;2023-05-10T00:31:10;12.02;;;5.13;;
35444;SDS011;21562;49.476;6.086;2023-05-10T00:33:36;7.38;;;5.13;;
35444;SDS011;21562;49.476;6.086;2023-05-10T00:36:01;6.88;;;5.53;;
35444;SDS011;21562;49.476;6.086;2023-05-10T00:38:27;7.90;;;4.88;;
35444;SDS011;21562;49.476;6.086;2023-05-10T00:40:52;10.98;;;4.90;;
35444;SDS011;21562;49.476;6.086;2023-05-10T00:43:18;10.40;;;5.15;;
35444;SDS011;21562;49.476;6.086;2023-05-10T00:45:44;8.43;;;4.47;;
35444;SDS011;21562;49.476;6.086;2023-05-10T00:48:10;7.47;;;5.07;;
35444;SDS011;21562;49.476;6.086;2023-05-10T00:50:35;7.50;;;5.70;;
35444;SDS011;21562;49.476;6.086;2023-05-10T00:53:01;10.02;;;5.93;;
35444;SDS011;21562;49.476;6.086;2023-05-10T00:55:27;10.55;;;5.85;;
35444;SDS011;21562;49.476;6.086;2023-05-10T00:57:53;8.10;;;6.00;;
35444;SDS011;21562;49.476;6.086;2023-05-10T01:00:19;8.90;;;5.47;;
35444;SDS011;21562;49.476;6.086;2023-05-10T01:02:45;11.57;;;5.75;;
35444;SDS011;21562;49.476;6.086;2023-05-10T01:05:11;12.00;;;6.70;;
35444;SDS011;21562;49.476;6.086;2023-05-10T01:07:38;11.52;;;7.03;;
35444;SDS011;21562;49.476;6.086;2023-05-10T01:10:05;9.15;;;6.90;;
35444;SDS011;21562;49.476;6.086;2023-05-10T01:12:31;9.73;;;7.03;;
35444;SDS011;21562;49.476;6.086;2023-05-10T01:14:58;13.68;;;6.75;;
35444;SDS011;21562;49.476;6.086;2023-05-10T01:17:25;13.27;;;7.70;;
35444;SDS011;21562;49.476;6.086;2023-05-10T01:19:51;10.68;;;7.20;;
35444;SDS011;21562;49.476;6.086;2023-05-10T01:30:26;12.98;;;6.97;;
35444;SDS011;21562;49.476;6.086;2023-05-10T01:35:49;5.43;;;4.15;;
35444;SDS011;21562;49.476;6.086;2023-05-10T01:43:28;3.30;;;2.75;;
35444;SDS011;21562;49.476;6.086;2023-05-10T01:46:07;2.95;;;2.33;;
35444;SDS011;21562;49.476;6.086;2023-05-10T01:48:57;4.05;;;2.20;;
35444;SDS011;21562;49.476;6.086;2023-05-10T01:51:25;3.35;;;2.53;;
35444;SDS011;21562;49.476;6.086;2023-05-10T01:53:57;3.20;;;2.15;;
35444;SDS011;21562;49.476;6.086;2023-05-10T01:56:26;4.35;;;2.03;;
35444;SDS011;21562;49.476;6.086;2023-05-10T01:58:53;7.00;;;2.13;;
35444;SDS011;21562;49.476;6.086;2023-05-10T02:01:20;3.35;;;1.67;;
35444;SDS011;21562;49.476;6.086;2023-05-10T02:03:46;6.15;;;1.83;;
35444;SDS011;21562;49.476;6.086;2023-05-10T02:06:14;3.30;;;1.85;;
35444;SDS011;21562;49.476;6.086;2023-05-10T02:08:43;3.95;;;1.77;;
35444;SDS011;21562;49.476;6.086;2023-05-10T02:11:10;5.25;;;1.73;;
35444;SDS011;21562;49.476;6.086;2023-05-10T02:13:38;4.32;;;1.80;;
35444;SDS011;21562;49.476;6.086;2023-05-10T02:16:06;2.67;;;1.50;;
35444;SDS011;21562;49.476;6.086;2023-05-10T02:18:33;3.42;;;1.40;;
35444;SDS011;21562;49.476;6.086;2023-05-10T02:21:01;2.40;;;1.10;;
35444;SDS011;21562;49.476;6.086;2023-05-10T02:23:28;1.95;;;1.45;;
35444;SDS011;21562;49.476;6.086;2023-05-10T02:25:55;4.88;;;1.33;;
35444;SDS011;21562;49.476;6.086;2023-05-10T02:28:23;3.17;;;1.70;;
35444;SDS011;21562;49.476;6.086;2023-05-10T02:30:50;3.78;;;1.38;;
35444;SDS011;21562;49.476;6.086;2023-05-10T02:33:17;4.82;;;1.58;;
35444;SDS011;21562;49.476;6.086;2023-05-10T02:35:45;3.10;;;1.55;;
35444;SDS011;21562;49.476;6.086;2023-05-10T02:38:11;3.20;;;1.45;;
35444;SDS011;21562;49.476;6.086;2023-05-10T02:40:39;3.97;;;1.08;;
35444;SDS011;21562;49.476;6.086;2023-05-10T02:43:07;4.57;;;1.30;;
35444;SDS011;21562;49.476;6.086;2023-05-10T02:45:36;3.40;;;1.20;;
35444;SDS011;21562;49.476;6.086;2023-05-10T02:48:03;4.18;;;1.60;;
35444;SDS011;21562;49.476;6.086;2023-05-10T02:50:30;2.42;;;1.42;;
35444;SDS011;21562;49.476;6.086;2023-05-10T02:53:01;8.10;;;1.58;;
35444;SDS011;21562;49.476;6.086;2023-05-10T02:55:36;4.78;;;1.77;;
35444;SDS011;21562;49.476;6.086;2023-05-10T02:58:05;4.53;;;1.90;;
35444;SDS011;21562;49.476;6.086;2023-05-10T03:00:30;4.65;;;1.90;;
35444;SDS011;21562;49.476;6.086;2023-05-10T03:02:56;4.75;;;1.83;;
35444;SDS011;21562;49.476;6.086;2023-05-10T03:05:22;6.18;;;1.77;;
35444;SDS011;21562;49.476;6.086;2023-05-10T03:07:48;3.45;;;1.92;;
35444;SDS011;21562;49.476;6.086;2023-05-10T03:10:13;3.00;;;1.80;;
35444;SDS011;21562;49.476;6.086;2023-05-10T03:18:44;2.25;;;1.80;;
35444;SDS011;21562;49.476;6.086;2023-05-10T03:21:30;4.55;;;1.83;;
35444;SDS011;21562;49.476;6.086;2023-05-10T03:26:33;6.55;;;1.85;;
35444;SDS011;21562;49.476;6.086;2023-05-10T03:29:00;2.08;;;1.48;;
35444;SDS011;21562;49.476;6.086;2023-05-10T03:31:27;4.10;;;1.90;;
35444;SDS011;21562;49.476;6.086;2023-05-10T03:33:52;5.88;;;1.83;;
35444;SDS011;21562;49.476;6.086;2023-05-10T03:36:18;1.98;;;1.50;;
35444;SDS011;21562;49.476;6.086;2023-05-10T03:38:44;2.92;;;1.55;;
35444;SDS011;21562;49.476;6.086;2023-05-10T03:41:10;3.75;;;1.80;;
35444;SDS011;21562;49.476;6.086;2023-05-10T03:43:36;2.42;;;1.75;;
35444;SDS011;21562;49.476;6.086;2023-05-10T03:46:02;2.83;;;1.40;;
35444;SDS011;21562;49.476;6.086;2023-05-10T03:48:28;2.00;;;1.60;;
35444;SDS011;21562;49.476;6.086;2023-05-10T03:50:54;2.42;;;1.42;;
35444;SDS011;21562;49.476;6.086;2023-05-10T03:53:19;3.65;;;1.70;;
35444;SDS011;21562;49.476;6.086;2023-05-10T03:55:45;5.60;;;2.15;;
35444;SDS011;21562;49.476;6.086;2023-05-10T03:58:11;3.80;;;2.38;;
35444;SDS011;21562;49.476;6.086;2023-05-10T04:00:37;9.30;;;3.03;;
35444;SDS011;21562;49.476;6.086;2023-05-10T04:03:08;9.38;;;3.72;;
35444;SDS011;21562;49.476;6.086;2023-05-10T04:05:34;5.85;;;3.08;;
35444;SDS011;21562;49.476;6.086;2023-05-10T04:08:00;6.50;;;2.35;;
35444;SDS011;21562;49.476;6.086;2023-05-10T04:10:26;5.90;;;2.03;;
35444;SDS011;21562;49.476;6.086;2023-05-10T04:12:51;5.55;;;1.80;;
35444;SDS011;21562;49.476;6.086;2023-05-10T04:15:17;13.25;;;3.60;;
35444;SDS011;21562;49.476;6.086;2023-05-10T04:17:42;3.30;;;2.10;;
35444;SDS011;21562;49.476;6.086;2023-05-10T04:20:08;2.58;;;1.77;;
35444;SDS011;21562;49.476;6.086;2023-05-10T04:22:34;2.92;;;1.73;;
35444;SDS011;21562;49.476;6.086;2023-05-10T04:25:00;2.97;;;1.70;;
35444;SDS011;21562;49.476;6.086;2023-05-10T04:27:25;6.50;;;1.75;;
35444;SDS011;21562;49.476;6.086;2023-05-10T04:29:52;3.10;;;1.95;;
35444;SDS011;21562;49.476;6.086;2023-05-10T04:32:17;3.28;;;2.40;;
35444;SDS011;21562;49.476;6.086;2023-05-10T04:34:44;3.13;;;2.13;;
35444;SDS011;21562;49.476;6.086;2023-05-10T04:37:09;4.65;;;2.10;;
35444;SDS011;21562;49.476;6.086;2023-05-10T04:39:35;4.00;;;2.08;;
35444;SDS011;21562;49.476;6.086;2023-05-10T04:42:01;3.00;;;1.60;;
35444;SDS011;21562;49.476;6.086;2023-05-10T04:44:28;3.00;;;1.73;;
35444;SDS011;21562;49.476;6.086;2023-05-10T04:46:54;3.55;;;2.50;;
35444;SDS011;21562;49.476;6.086;2023-05-10T04:49:20;6.25;;;2.08;;
35444;SDS011;21562;49.476;6.086;2023-05-10T04:51:45;2.47;;;1.80;;
35444;SDS011;21562;49.476;6.086;2023-05-10T04:54:11;2.67;;;1.90;;
35444;SDS011;21562;49.476;6.086;2023-05-10T04:56:37;5.00;;;1.45;;
35444;SDS011;21562;49.476;6.086;2023-05-10T04:59:02;7.88;;;1.20;;
35444;SDS011;21562;49.476;6.086;2023-05-10T05:01:28;2.35;;;1.10;;
35444;SDS011;21562;49.476;6.086;2023-05-10T05:03:53;5.10;;;1.10;;
35444;SDS011;21562;49.476;6.086;2023-05-10T05:06:19;1.45;;;0.70;;
35444;SDS011;21562;49.476;6.086;2023-05-10T05:08:46;1.30;;;0.75;;
35444;SDS011;21562;49.476;6.086;2023-05-10T05:11:11;2.90;;;0.82;;
35444;SDS011;21562;49.476;6.086;2023-05-10T05:13:37;6.55;;;1.48;;
35444;SDS011;21562;49.476;6.086;2023-05-10T05:16:03;3.17;;;1.30;;
35444;SDS011;21562;49.476;6.086;2023-05-10T05:18:30;1.77;;;1.23;;
35444;SDS011;21562;49.476;6.086;2023-05-10T05:20:55;6.57;;;1.33;;
35444;SDS011;21562;49.476;6.086;2023-05-10T05:23:21;2.78;;;1.60;;
35444;SDS011;21562;49.476;6.086;2023-05-10T05:25:49;3.85;;;1.23;;
35444;SDS011;21562;49.476;6.086;2023-05-10T05:28:18;5.28;;;1.30;;
35444;SDS011;21562;49.476;6.086;2023-05-10T05:30:45;7.00;;;1.10;;
35444;SDS011;21562;49.476;6.086;2023-05-10T05:33:11;2.33;;;1.30;;
35444;SDS011;21562;49.476;6.086;2023-05-10T05:35:38;1.77;;;1.08;;
35444;SDS011;21562;49.476;6.086;2023-05-10T05:38:03;1.45;;;0.82;;
35444;SDS011;21562;49.476;6.086;2023-05-10T05:40:29;1.38;;;0.80;;
35444;SDS011;21562;49.476;6.086;2023-05-10T05:42:54;1.55;;;1.05;;
35444;SDS011;21562;49.476;6.086;2023-05-10T05:45:20;1.27;;;0.85;;
35444;SDS011;21562;49.476;6.086;2023-05-10T05:47:46;2.25;;;0.90;;
35444;SDS011;21562;49.476;6.086;2023-05-10T05:50:12;3.58;;;1.10;;
35444;SDS011;21562;49.476;6.086;2023-05-10T05:52:37;0.93;;;0.70;;
35444;SDS011;21562;49.476;6.086;2023-05-10T05:55:03;1.38;;;0.85;;
35444;SDS011;21562;49.476;6.086;2023-05-10T05:57:29;4.00;;;0.80;;
35444;SDS011;21562;49.476;6.086;2023-05-10T05:59:54;2.25;;;0.85;;
35444;SDS011;21562;49.476;6.086;2023-05-10T06:02:20;1.20;;;0.90;;
35444;SDS011;21562;49.476;6.086;2023-05-10T06:04:46;0.73;;;0.60;;
35444;SDS011;21562;49.476;6.086;2023-05-10T06:07:12;3.92;;;1.00;;
35444;SDS011;21562;49.476;6.086;2023-05-10T06:09:37;0.77;;;0.70;;
35444;SDS011;21562;49.476;6.086;2023-05-10T06:12:03;1.52;;;0.80;;
35444;SDS011;21562;49.476;6.086;2023-05-10T06:14:29;3.38;;;0.90;;
35444;SDS011;21562;49.476;6.086;2023-05-10T06:16:54;1.85;;;0.80;;
35444;SDS011;21562;49.476;6.086;2023-05-10T06:19:20;2.90;;;1.00;;
35444;SDS011;21562;49.476;6.086;2023-05-10T06:21:45;2.20;;;1.10;;
35444;SDS011;21562;49.476;6.086;2023-05-10T06:24:11;3.92;;;1.10;;
35444;SDS011;21562;49.476;6.086;2023-05-10T06:26:36;1.67;;;0.95;;
35444;SDS011;21562;49.476;6.086;2023-05-10T06:29:02;3.13;;;1.02;;
35444;SDS011;21562;49.476;6.086;2023-05-10T06:31:28;5.13;;;0.98;;
35444;SDS011;21562;49.476;6.086;2023-05-10T06:33:53;1.00;;;0.60;;
35444;SDS011;21562;49.476;6.086;2023-05-10T06:36:19;1.45;;;0.98;;
35444;SDS011;21562;49.476;6.086;2023-05-10T06:38:44;1.27;;;1.00;;
35444;SDS011;21562;49.476;6.086;2023-05-10T06:41:10;2.15;;;1.05;;
35444;SDS011;21562;49.476;6.086;2023-05-10T06:43:36;3.50;;;0.75;;
35444;SDS011;21562;49.476;6.086;2023-05-10T06:46:05;1.25;;;0.70;;
35444;SDS011;21562;49.476;6.086;2023-05-10T06:48:31;2.33;;;0.98;;
35444;SDS011;21562;49.476;6.086;2023-05-10T06:50:56;6.22;;;0.98;;
35444;SDS011;21562;49.476;6.086;2023-05-10T06:53:22;2.65;;;0.90;;
35444;SDS011;21562;49.476;6.086;2023-05-10T06:55:48;2.55;;;0.85;;
35444;SDS011;21562;49.476;6.086;2023-05-10T06:58:14;1.90;;;1.05;;
35444;SDS011;21562;49.476;6.086;2023-05-10T07:00:40;2.97;;;1.30;;
35444;SDS011;21562;49.476;6.086;2023-05-10T07:03:08;1.80;;;0.77;;
35444;SDS011;21562;49.476;6.086;2023-05-10T07:05:34;1.52;;;0.85;;
35444;SDS011;21562;49.476;6.086;2023-05-10T07:08:00;1.10;;;0.80;;
35444;SDS011;21562;49.476;6.086;2023-05-10T07:10:26;1.05;;;0.60;;
35444;SDS011;21562;49.476;6.086;2023-05-10T07:12:52;4.03;;;0.90;;
35444;SDS011;21562;49.476;6.086;2023-05-10T07:15:17;3.88;;;1.50;;
35444;SDS011;21562;49.476;6.086;2023-05-10T07:17:43;4.35;;;1.20;;
35444;SDS011;21562;49.476;6.086;2023-05-10T07:20:09;2.13;;;1.58;;
35444;SDS011;21562;49.476;6.086;2023-05-10T07:22:35;2.50;;;1.75;;
35444;SDS011;21562;49.476;6.086;2023-05-10T07:25:01;4.18;;;1.60;;
35444;SDS011;21562;49.476;6.086;2023-05-10T07:27:27;3.92;;;1.85;;
35444;SDS011;21562;49.476;6.086;2023-05-10T07:29:53;4.93;;;2.50;;
35444;SDS011;21562;49.476;6.086;2023-05-10T07:32:19;8.55;;;2.58;;
35444;SDS011;21562;49.476;6.086;2023-05-10T07:34:45;4.90;;;2.35;;
35444;SDS011;21562;49.476;6.086;2023-05-10T07:37:11;5.30;;;3.35;;
35444;SDS011;21562;49.476;6.086;2023-05-10T07:39:36;7.00;;;2.65;;
35444;SDS011;21562;49.476;6.086;2023-05-10T07:42:02;7.80;;;2.42;;
35444;SDS011;21562;49.476;6.086;2023-05-10T07:44:28;9.50;;;2.88;;
35444;SDS011;21562;49.476;6.086;2023-05-10T07:46:54;9.45;;;2.47;;
35444;SDS011;21562;49.476;6.086;2023-05-10T07:49:20;7.63;;;2.90;;
35444;SDS011;21562;49.476;6.086;2023-05-10T07:51:46;5.05;;;2.53;;
35444;SDS011;21562;49.476;6.086;2023-05-10T07:54:12;6.22;;;2.78;;
35444;SDS011;21562;49.476;6.086;2023-05-10T07:56:37;9.02;;;3.33;;
35444;SDS011;21562;49.476;6.086;2023-05-10T07:59:04;11.60;;;3.42;;
35444;SDS011;21562;49.476;6.086;2023-05-10T08:01:32;7.57;;;3.45;;
35444;SDS011;21562;49.476;6.086;2023-05-10T08:03:58;11.07;;;3.00;;
35444;SDS011;21562;49.476;6.086;2023-05-10T08:06:24;11.65;;;3.40;;
35444;SDS011;21562;49.476;6.086;2023-05-10T08:08:53;11.55;;;3.17;;
35444;SDS011;21562;49.476;6.086;2023-05-10T08:11:22;7.72;;;2.70;;
35444;SDS011;21562;49.476;6.086;2023-05-10T08:13:48;7.80;;;2.70;;
35444;SDS011;21562;49.476;6.086;2023-05-10T08:16:15;9.65;;;2.78;;
35444;SDS011;21562;49.476;6.086;2023-05-10T08:18:44;8.38;;;2.72;;
35444;SDS011;21562;49.476;6.086;2023-05-10T08:21:10;9.73;;;2.28;;
35444;SDS011;21562;49.476;6.086;2023-05-10T08:23:48;9.18;;;2.58;;
35444;SDS011;21562;49.476;6.086;2023-05-10T08:26:14;8.45;;;2.38;;
35444;SDS011;21562;49.476;6.086;2023-05-10T08:28:39;9.68;;;2.38;;
35444;SDS011;21562;49.476;6.086;2023-05-10T08:31:05;12.80;;;2.83;;
35444;SDS011;21562;49.476;6.086;2023-05-10T08:33:31;8.15;;;3.10;;
35444;SDS011;21562;49.476;6.086;2023-05-10T08:35:56;12.73;;;2.33;;
35444;SDS011;21562;49.476;6.086;2023-05-10T08:38:22;10.63;;;2.85;;
35444;SDS011;21562;49.476;6.086;2023-05-10T08:40:48;10.18;;;2.75;;
35444;SDS011;21562;49.476;6.086;2023-05-10T08:43:15;14.55;;;2.17;;
35444;SDS011;21562;49.476;6.086;2023-05-10T08:45:42;9.80;;;2.53;;
35444;SDS011;21562;49.476;6.086;2023-05-10T08:48:10;7.68;;;2.35;;
35444;SDS011;21562;49.476;6.086;2023-05-10T08:50:37;9.75;;;2.10;;
35444;SDS011;21562;49.476;6.086;2023-05-10T08:53:11;10.57;;;2.42;;
35444;SDS011;21562;49.476;6.086;2023-05-10T08:55:38;5.35;;;2.00;;
35444;SDS011;21562;49.476;6.086;2023-05-10T08:58:05;7.00;;;2.22;;
35444;SDS011;21562;49.476;6.086;2023-05-10T09:00:31;12.25;;;2.25;;
35444;SDS011;21562;49.476;6.086;2023-05-10T09:02:58;8.38;;;1.85;;
35444;SDS011;21562;49.476;6.086;2023-05-10T09:05:24;8.90;;;1.95;;
35444;SDS011;21562;49.476;6.086;2023-05-10T09:07:50;16.88;;;2.13;;
35444;SDS011;21562;49.476;6.086;2023-05-10T09:10:15;6.40;;;1.45;;
35444;SDS011;21562;49.476;6.086;2023-05-10T09:12:41;5.78;;;1.60;;
35444;SDS011;21562;49.476;6.086;2023-05-10T09:15:09;3.65;;;1.50;;
35444;SDS011;21562;49.476;6.086;2023-05-10T09:17:35;13.63;;;2.42;;
35444;SDS011;21562;49.476;6.086;2023-05-10T09:20:01;8.82;;;1.60;;
35444;SDS011;21562;49.476;6.086;2023-05-10T09:22:31;9.55;;;1.42;;
35444;SDS011;21562;49.476;6.086;2023-05-10T09:25:04;5.78;;;1.92;;
35444;SDS011;21562;49.476;6.086;2023-05-10T09:27:34;2.92;;;1.08;;
35444;SDS011;21562;49.476;6.086;2023-05-10T09:30:00;7.13;;;1.48;;
35444;SDS011;21562;49.476;6.086;2023-05-10T09:32:45;5.07;;;1.40;;
35444;SDS011;21562;49.476;6.086;2023-05-10T09:35:14;6.03;;;1.38;;
35444;SDS011;21562;49.476;6.086;2023-05-10T09:37:41;11.05;;;1.15;;
35444;SDS011;21562;49.476;6.086;2023-05-10T09:40:12;3.15;;;1.02;;
35444;SDS011;21562;49.476;6.086;2023-05-10T09:42:40;3.53;;;1.20;;
35444;SDS011;21562;49.476;6.086;2023-05-10T09:45:19;5.95;;;1.27;;
35444;SDS011;21562;49.476;6.086;2023-05-10T09:47:46;7.03;;;1.52;;
35444;SDS011;21562;49.476;6.086;2023-05-10T09:50:12;8.63;;;1.17;;
35444;SDS011;21562;49.476;6.086;2023-05-10T09:55:26;4.75;;;1.23;;
35444;SDS011;21562;49.476;6.086;2023-05-10T09:58:03;8.45;;;1.20;;
35444;SDS011;21562;49.476;6.086;2023-05-10T10:00:35;3.63;;;1.02;;
35444;SDS011;21562;49.476;6.086;2023-05-10T10:03:05;9.07;;;0.95;;
35444;SDS011;21562;49.476;6.086;2023-05-10T10:05:32;5.25;;;1.05;;
35444;SDS011;21562;49.476;6.086;2023-05-10T10:08:00;5.78;;;1.58;;
35444;SDS011;21562;49.476;6.086;2023-05-10T10:10:27;5.68;;;1.17;;
35444;SDS011;21562;49.476;6.086;2023-05-10T10:12:53;6.88;;;1.23;;
35444;SDS011;21562;49.476;6.086;2023-05-10T10:15:22;3.03;;;1.15;;
35444;SDS011;21562;49.476;6.086;2023-05-10T10:17:49;4.20;;;1.00;;
35444;SDS011;21562;49.476;6.086;2023-05-10T10:20:16;6.38;;;0.90;;
35444;SDS011;21562;49.476;6.086;2023-05-10T10:22:43;3.47;;;0.77;;
35444;SDS011;21562;49.476;6.086;2023-05-10T10:25:10;5.55;;;1.00;;
35444;SDS011;21562;49.476;6.086;2023-05-10T10:30:18;6.13;;;0.93;;
35444;SDS011;21562;49.476;6.086;2023-05-10T10:35:50;2.15;;;0.85;;
35444;SDS011;21562;49.476;6.086;2023-05-10T10:38:18;2.17;;;0.70;;
35444;SDS011;21562;49.476;6.086;2023-05-10T10:40:43;4.00;;;1.05;;
35444;SDS011;21562;49.476;6.086;2023-05-10T10:43:20;6.88;;;1.42;;
35444;SDS011;21562;49.476;6.086;2023-05-10T10:46:10;19.42;;;3.08;;
35444;SDS011;21562;49.476;6.086;2023-05-10T10:48:49;6.00;;;0.90;;
35444;SDS011;21562;49.476;6.086;2023-05-10T10:51:36;3.25;;;0.80;;
35444;SDS011;21562;49.476;6.086;2023-05-10T10:54:12;6.35;;;0.77;;
35444;SDS011;21562;49.476;6.086;2023-05-10T10:56:37;5.90;;;0.95;;
35444;SDS011;21562;49.476;6.086;2023-05-10T10:59:03;5.57;;;1.00;;
35444;SDS011;21562;49.476;6.086;2023-05-10T11:01:32;4.45;;;1.10;;
35444;SDS011;21562;49.476;6.086;2023-05-10T11:06:34;9.55;;;1.25;;
35444;SDS011;21562;49.476;6.086;2023-05-10T11:09:07;3.55;;;0.90;;
35444;SDS011;21562;49.476;6.086;2023-05-10T11:11:34;3.25;;;0.70;;
35444;SDS011;21562;49.476;6.086;2023-05-10T11:14:04;5.22;;;0.73;;
35444;SDS011;21562;49.476;6.086;2023-05-10T11:16:41;3.50;;;0.65;;
35444;SDS011;21562;49.476;6.086;2023-05-10T11:19:08;1.23;;;0.50;;
35444;SDS011;21562;49.476;6.086;2023-05-10T11:24:14;3.22;;;0.50;;
35444;SDS011;21562;49.476;6.086;2023-05-10T11:26:44;1.23;;;0.52;;
35444;SDS011;21562;49.476;6.086;2023-05-10T11:29:12;6.28;;;0.90;;
35444;SDS011;21562;49.476;6.086;2023-05-10T11:31:42;3.25;;;0.50;;
35444;SDS011;21562;49.476;6.086;2023-05-10T11:34:08;5.45;;;0.57;;
35444;SDS011;21562;49.476;6.086;2023-05-10T11:36:35;1.05;;;0.50;;
35444;SDS011;21562;49.476;6.086;2023-05-10T11:39:01;1.52;;;0.52;;
35444;SDS011;21562;49.476;6.086;2023-05-10T11:41:28;1.77;;;1.00;;
35444;SDS011;21562;49.476;6.086;2023-05-10T11:43:57;0.85;;;0.40;;
35444;SDS011;21562;49.476;6.086;2023-05-10T11:46:24;6.47;;;0.50;;
35444;SDS011;21562;49.476;6.086;2023-05-10T11:48:52;2.15;;;0.60;;
35444;SDS011;21562;49.476;6.086;2023-05-10T11:51:20;3.05;;;0.57;;
35444;SDS011;21562;49.476;6.086;2023-05-10T11:53:50;2.90;;;0.77;;
35444;SDS011;21562;49.476;6.086;2023-05-10T11:56:18;3.25;;;0.47;;
35444;SDS011;21562;49.476;6.086;2023-05-10T11:58:51;3.20;;;0.57;;
35444;SDS011;21562;49.476;6.086;2023-05-10T12:01:20;2.08;;;0.40;;
35444;SDS011;21562;49.476;6.086;2023-05-10T12:03:47;3.10;;;0.50;;
35444;SDS011;21562;49.476;6.086;2023-05-10T12:06:14;3.05;;;0.47;;
35444;SDS011;21562;49.476;6.086;2023-05-10T12:08:43;3.40;;;0.50;;
35444;SDS011;21562;49.476;6.086;2023-05-10T12:11:11;0.82;;;0.68;;
35444;SDS011;21562;49.476;6.086;2023-05-10T12:13:41;1.73;;;0.50;;
35444;SDS011;21562;49.476;6.086;2023-05-10T12:16:18;2.53;;;0.57;;
35444;SDS011;21562;49.476;6.086;2023-05-10T12:18:48;4.43;;;1.15;;
35444;SDS011;21562;49.476;6.086;2023-05-10T12:21:16;1.60;;;0.50;;
35444;SDS011;21562;49.476;6.086;2023-05-10T12:23:42;0.40;;;0.40;;
35444;SDS011;21562;49.476;6.086;2023-05-10T12:26:10;0.60;;;0.35;;
35444;SDS011;21562;49.476;6.086;2023-05-10T12:28:36;1.52;;;0.38;;
35444;SDS011;21562;49.476;6.086;2023-05-10T12:31:02;1.75;;;0.40;;
35444;SDS011;21562;49.476;6.086;2023-05-10T12:33:39;1.90;;;0.63;;
35444;SDS011;21562;49.476;6.086;2023-05-10T12:36:09;5.85;;;0.70;;
35444;SDS011;21562;49.476;6.086;2023-05-10T12:38:36;0.95;;;0.30;;
35444;SDS011;21562;49.476;6.086;2023-05-10T12:41:07;1.73;;;0.25;;
35444;SDS011;21562;49.476;6.086;2023-05-10T12:43:38;1.75;;;0.50;;
35444;SDS011;21562;49.476;6.086;2023-05-10T12:46:04;1.20;;;0.50;;
35444;SDS011;21562;49.476;6.086;2023-05-10T12:48:30;3.28;;;0.30;;
35444;SDS011;21562;49.476;6.086;2023-05-10T12:50:56;4.13;;;0.52;;
35444;SDS011;21562;49.476;6.086;2023-05-10T12:53:22;3.30;;;0.60;;
35444;SDS011;21562;49.476;6.086;2023-05-10T12:55:47;5.78;;;0.85;;
35444;SDS011;21562;49.476;6.086;2023-05-10T12:58:13;3.90;;;0.50;;
35444;SDS011;21562;49.476;6.086;2023-05-10T13:00:39;0.20;;;0.13;;
35444;SDS011;21562;49.476;6.086;2023-05-10T13:03:05;1.45;;;0.40;;
35444;SDS011;21562;49.476;6.086;2023-05-10T13:05:33;5.15;;;0.40;;
35444;SDS011;21562;49.476;6.086;2023-05-10T13:07:59;1.90;;;0.40;;
35444;SDS011;21562;49.476;6.086;2023-05-10T13:10:25;2.50;;;0.50;;
35444;SDS011;21562;49.476;6.086;2023-05-10T13:12:51;0.70;;;0.40;;
35444;SDS011;21562;49.476;6.086;2023-05-10T13:15:16;3.00;;;0.30;;
35444;SDS011;21562;49.476;6.086;2023-05-10T13:17:42;1.13;;;0.50;;
35444;SDS011;21562;49.476;6.086;2023-05-10T13:20:08;0.73;;;0.47;;
35444;SDS011;21562;49.476;6.086;2023-05-10T13:22:34;3.33;;;0.93;;
35444;SDS011;21562;49.476;6.086;2023-05-10T13:25:01;1.67;;;0.40;;
35444;SDS011;21562;49.476;6.086;2023-05-10T13:27:27;2.45;;;0.60;;
35444;SDS011;21562;49.476;6.086;2023-05-10T13:29:53;2.72;;;0.60;;
35444;SDS011;21562;49.476;6.086;2023-05-10T13:32:19;0.98;;;0.60;;
35444;SDS011;21562;49.476;6.086;2023-05-10T13:34:45;3.95;;;0.50;;
35444;SDS011;21562;49.476;6.086;2023-05-10T13:37:11;2.03;;;0.55;;
35444;SDS011;21562;49.476;6.086;2023-05-10T13:39:37;2.72;;;0.50;;
35444;SDS011;21562;49.476;6.086;2023-05-10T13:42:03;2.40;;;0.95;;
35444;SDS011;21562;49.476;6.086;2023-05-10T13:44:29;2.05;;;0.60;;
35444;SDS011;21562;49.476;6.086;2023-05-10T13:46:55;1.85;;;0.50;;
35444;SDS011;21562;49.476;6.086;2023-05-10T13:49:21;0.98;;;0.40;;
35444;SDS011;21562;49.476;6.086;2023-05-10T13:51:47;2.33;;;0.50;;
35444;SDS011;21562;49.476;6.086;2023-05-10T13:54:13;3.78;;;1.52;;
35444;SDS011;21562;49.476;6.086;2023-05-10T13:56:38;1.33;;;0.55;;
35444;SDS011;21562;49.476;6.086;2023-05-10T13:59:05;4.07;;;0.70;;
35444;SDS011;21562;49.476;6.086;2023-05-10T14:01:32;2.70;;;0.50;;
35444;SDS011;21562;49.476;6.086;2023-05-10T14:03:58;3.92;;;0.55;;
35444;SDS011;21562;49.476;6.086;2023-05-10T14:06:24;2.40;;;0.60;;
35444;SDS011;21562;49.476;6.086;2023-05-10T14:08:50;4.28;;;0.70;;
35444;SDS011;21562;49.476;6.086;2023-05-10T14:11:17;2.15;;;0.70;;
35444;SDS011;21562;49.476;6.086;2023-05-10T14:13:42;1.98;;;0.60;;
35444;SDS011;21562;49.476;6.086;2023-05-10T14:16:08;2.00;;;0.98;;
35444;SDS011;21562;49.476;6.086;2023-05-10T14:18:34;3.63;;;0.50;;
35444;SDS011;21562;49.476;6.086;2023-05-10T14:20:59;6.20;;;0.50;;
35444;SDS011;21562;49.476;6.086;2023-05-10T14:23:25;2.80;;;0.45;;
35444;SDS011;21562;49.476;6.086;2023-05-10T14:25:51;2.17;;;0.50;;
35444;SDS011;21562;49.476;6.086;2023-05-10T14:28:17;3.55;;;0.60;;
35444;SDS011;21562;49.476;6.086;2023-05-10T14:30:43;0.82;;;0.47;;
35444;SDS011;21562;49.476;6.086;2023-05-10T14:33:09;2.78;;;0.50;;
35444;SDS011;21562;49.476;6.086;2023-05-10T14:35:35;2.35;;;0.55;;
35444;SDS011;21562;49.476;6.086;2023-05-10T14:38:01;2.25;;;0.70;;
35444;SDS011;21562;49.476;6.086;2023-05-10T14:40:28;1.13;;;0.30;;
35444;SDS011;21562;49.476;6.086;2023-05-10T14:42:54;1.85;;;0.52;;
35444;SDS011;21562;49.476;6.086;2023-05-10T14:45:20;2.42;;;0.47;;
35444;SDS011;21562;49.476;6.086;2023-05-10T14:47:46;2.08;;;0.60;;
35444;SDS011;21562;49.476;6.086;2023-05-10T14:50:12;3.15;;;0.50;;
35444;SDS011;21562;49.476;6.086;2023-05-10T14:52:37;6.63;;;1.00;;
35444;SDS011;21562;49.476;6.086;2023-05-10T14:55:03;8.43;;;1.10;;
35444;SDS011;21562;49.476;6.086;2023-05-10T14:57:29;3.38;;;0.85;;
35444;SDS011;21562;49.476;6.086;2023-05-10T14:59:55;2.22;;;0.60;;
35444;SDS011;21562;49.476;6.086;2023-05-10T15:02:21;2.25;;;0.63;;
35444;SDS011;21562;49.476;6.086;2023-05-10T15:04:47;2.67;;;0.85;;
35444;SDS011;21562;49.476;6.086;2023-05-10T15:07:12;2.65;;;0.80;;
35444;SDS011;21562;49.476;6.086;2023-05-10T15:09:40;3.60;;;0.50;;
35444;SDS011;21562;49.476;6.086;2023-05-10T15:12:06;3.67;;;0.88;;
35444;SDS011;21562;49.476;6.086;2023-05-10T15:14:31;6.97;;;0.68;;
35444;SDS011;21562;49.476;6.086;2023-05-10T15:16:58;4.43;;;1.30;;
35444;SDS011;21562;49.476;6.086;2023-05-10T15:19:24;2.35;;;1.58;;
35444;SDS011;21562;49.476;6.086;2023-05-10T15:21:49;3.80;;;0.60;;
35444;SDS011;21562;49.476;6.086;2023-05-10T15:24:15;1.83;;;0.52;;